sensor_id;sensor_type;location;lat;lon;timestamp;pressure;altitude;pressure_sealevel;temperature;humidity
71643;BME280;59438;45.014;39.006;2023-01-28T00:01:41;101138.44;;;-0.78;64.41
71643;BME280;59438;45.014;39.006;2023-01-28T00:04:09;101135.84;;;-0.78;64.56
71643;BME280;59438;45.014;39.006;2023-01-28T00:06:36;101122.91;;;-0.79;64.46
71643;BME280;59438;45.014;39.006;2023-01-28T00:09:17;101081.19;;;-1.07;64.59
71643;BME280;59438;45.014;39.006;2023-01-28T00:11:44;101128.94;;;-0.79;64.56
71643;BME280;59438;45.014;39.006;2023-01-28T00:14:11;101123.72;;;-0.84;64.33
71643;BME280;59438;45.014;39.006;2023-01-28T00:16:37;101119.31;;;-0.89;64.40
71643;BME280;59438;45.014;39.006;2023-01-28T00:19:04;101109.69;;;-0.99;64.63
71643;BME280;59438;45.014;39.006;2023-01-28T00:21:30;101090.59;;;-1.11;64.41
71643;BME280;59438;45.014;39.006;2023-01-28T00:23:57;101106.25;;;-1.00;64.80
71643;BME280;59438;45.014;39.006;2023-01-28T00:26:23;101069.00;;;-1.19;64.73
71643;BME280;59438;45.014;39.006;2023-01-28T00:28:51;101086.38;;;-1.06;64.72
71643;BME280;59438;45.014;39.006;2023-01-28T00:31:24;101091.50;;;-1.09;65.08
71643;BME280;59438;45.014;39.006;2023-01-28T00:33:51;101081.97;;;-1.11;64.77
71643;BME280;59438;45.014;39.006;2023-01-28T00:36:19;101049.88;;;-1.30;64.80
71643;BME280;59438;45.014;39.006;2023-01-28T00:38:49;101065.66;;;-1.12;65.24
71643;BME280;59438;45.014;39.006;2023-01-28T00:41:16;101067.41;;;-1.09;65.05
71643;BME280;59438;45.014;39.006;2023-01-28T00:43:43;101054.53;;;-1.08;65.29
71643;BME280;59438;45.014;39.006;2023-01-28T00:46:12;101062.31;;;-1.06;64.90
71643;BME280;59438;45.014;39.006;2023-01-28T00:48:39;101045.09;;;-1.09;65.13
71643;BME280;59438;45.014;39.006;2023-01-28T00:51:06;101053.75;;;-1.04;64.58
71643;BME280;59438;45.014;39.006;2023-01-28T00:53:33;101057.22;;;-1.02;64.53
71643;BME280;59438;45.014;39.006;2023-01-28T00:55:59;101047.78;;;-1.03;64.92
71643;BME280;59438;45.014;39.006;2023-01-28T00:58:26;101052.06;;;-1.02;64.74
71643;BME280;59438;45.014;39.006;2023-01-28T01:00:52;101033.03;;;-1.10;64.85
71643;BME280;59438;45.014;39.006;2023-01-28T01:03:20;101041.81;;;-0.98;65.10
71643;BME280;59438;45.014;39.006;2023-01-28T01:05:46;101038.41;;;-0.96;64.90
71643;BME280;59438;45.014;39.006;2023-01-28T01:08:13;101044.50;;;-0.91;64.72
71643;BME280;59438;45.014;39.006;2023-01-28T01:10:40;101005.56;;;-1.08;65.01
71643;BME280;59438;45.014;39.006;2023-01-28T01:13:06;101042.00;;;-0.85;64.88
71643;BME280;59438;45.014;39.006;2023-01-28T01:15:33;101033.44;;;-0.84;64.65
71643;BME280;59438;45.014;39.006;2023-01-28T01:17:59;101026.53;;;-0.85;64.82
71643;BME280;59438;45.014;39.006;2023-01-28T01:20:28;101031.78;;;-0.80;64.64
71643;BME280;59438;45.014;39.006;2023-01-28T01:22:55;101017.84;;;-0.91;64.58
71643;BME280;59438;45.014;39.006;2023-01-28T01:25:21;101026.59;;;-0.82;64.64
71643;BME280;59438;45.014;39.006;2023-01-28T01:27:48;101004.03;;;-0.96;64.57
71643;BME280;59438;45.014;39.006;2023-01-28T01:30:15;101020.53;;;-0.84;64.67
71643;BME280;59438;45.014;39.006;2023-01-28T01:32:42;101012.75;;;-0.88;64.55
71643;BME280;59438;45.014;39.006;2023-01-28T01:35:09;101009.31;;;-0.87;64.63
71643;BME280;59438;45.014;39.006;2023-01-28T01:37:37;101017.03;;;-0.87;65.05
71643;BME280;59438;45.014;39.006;2023-01-28T01:40:04;101014.63;;;-0.78;64.58
71643;BME280;59438;45.014;39.006;2023-01-28T01:42:31;101013.78;;;-0.75;64.62
71643;BME280;59438;45.014;39.006;2023-01-28T01:45:00;101016.38;;;-0.75;64.21
71643;BME280;59438;45.014;39.006;2023-01-28T01:47:32;101001.56;;;-0.87;64.69
71643;BME280;59438;45.014;39.006;2023-01-28T01:50:04;101024.88;;;-0.81;64.67
71643;BME280;59438;45.014;39.006;2023-01-28T01:52:34;101012.84;;;-0.82;64.56
71643;BME280;59438;45.014;39.006;2023-01-28T01:55:05;100965.19;;;-1.06;64.98
71643;BME280;59438;45.014;39.006;2023-01-28T01:57:35;100987.88;;;-0.83;65.08
71643;BME280;59438;45.014;39.006;2023-01-28T02:00:03;100986.16;;;-0.83;64.63
71643;BME280;59438;45.014;39.006;2023-01-28T02:02:34;100997.50;;;-0.71;64.42
71643;BME280;59438;45.014;39.006;2023-01-28T02:05:02;100990.63;;;-0.71;64.68
71643;BME280;59438;45.014;39.006;2023-01-28T02:07:29;100993.22;;;-0.69;64.58
71643;BME280;59438;45.014;39.006;2023-01-28T02:09:56;100971.56;;;-0.81;64.55
71643;BME280;59438;45.014;39.006;2023-01-28T02:12:27;100985.47;;;-0.71;64.58
71643;BME280;59438;45.014;39.006;2023-01-28T02:14:58;100967.28;;;-0.78;64.48
71643;BME280;59438;45.014;39.006;2023-01-28T02:17:25;100982.06;;;-0.67;64.63
71643;BME280;59438;45.014;39.006;2023-01-28T02:19:54;100945.53;;;-0.99;64.37
71643;BME280;59438;45.014;39.006;2023-01-28T02:25:43;100974.19;;;-0.77;64.19
71643;BME280;59438;45.014;39.006;2023-01-28T02:28:22;100968.97;;;-0.81;64.48
71643;BME280;59438;45.014;39.006;2023-01-28T02:30:56;100968.06;;;-0.86;64.59
71643;BME280;59438;45.014;39.006;2023-01-28T02:33:28;100817.13;;;-1.86;64.79
71643;BME280;59438;45.014;39.006;2023-01-28T02:36:03;100893.47;;;-1.34;64.53
71643;BME280;59438;45.014;39.006;2023-01-28T02:38:38;100968.88;;;-0.90;64.52
71643;BME280;59438;45.014;39.006;2023-01-28T02:41:10;100978.38;;;-0.86;64.56
71643;BME280;59438;45.014;39.006;2023-01-28T02:43:41;100998.25;;;-0.78;64.62
71643;BME280;59438;45.014;39.006;2023-01-28T02:46:19;100994.88;;;-0.76;64.56
71643;BME280;59438;45.014;39.006;2023-01-28T02:48:46;100987.06;;;-0.79;64.49
71643;BME280;59438;45.014;39.006;2023-01-28T02:51:22;100988.00;;;-0.75;64.50
71643;BME280;59438;45.014;39.006;2023-01-28T02:53:54;100983.75;;;-0.72;64.50
71643;BME280;59438;45.014;39.006;2023-01-28T02:56:29;100961.91;;;-0.95;64.08
71643;BME280;59438;45.014;39.006;2023-01-28T02:59:06;100987.13;;;-0.76;64.41
71643;BME280;59438;45.014;39.006;2023-01-28T03:01:38;100984.50;;;-0.79;64.44
71643;BME280;59438;45.014;39.006;2023-01-28T03:04:13;100987.94;;;-0.78;64.46
71643;BME280;59438;45.014;39.006;2023-01-28T03:06:46;100973.28;;;-0.81;64.50
71643;BME280;59438;45.014;39.006;2023-01-28T03:09:14;100988.84;;;-0.75;64.72
71643;BME280;59438;45.014;39.006;2023-01-28T03:11:46;100993.16;;;-0.75;64.36
71643;BME280;59438;45.014;39.006;2023-01-28T03:14:15;100988.81;;;-0.78;64.41
71643;BME280;59438;45.014;39.006;2023-01-28T03:16:43;100974.09;;;-0.85;64.13
71643;BME280;59438;45.014;39.006;2023-01-28T03:19:10;100963.72;;;-0.90;64.40
71643;BME280;59438;45.014;39.006;2023-01-28T03:21:40;100857.88;;;-1.60;64.34
71643;BME280;59438;45.014;39.006;2023-01-28T03:24:11;100971.50;;;-0.85;64.69
71643;BME280;59438;45.014;39.006;2023-01-28T03:26:43;100874.44;;;-1.44;64.36
71643;BME280;59438;45.014;39.006;2023-01-28T03:29:13;100962.03;;;-0.88;64.20
71643;BME280;59438;45.014;39.006;2023-01-28T03:31:41;100986.25;;;-0.75;64.42
71643;BME280;59438;45.014;39.006;2023-01-28T03:34:09;100985.44;;;-0.74;64.13
71643;BME280;59438;45.014;39.006;2023-01-28T03:36:36;100982.84;;;-0.72;64.34
71643;BME280;59438;45.014;39.006;2023-01-28T03:39:03;100986.25;;;-0.76;64.09
71643;BME280;59438;45.014;39.006;2023-01-28T03:41:29;100987.16;;;-0.73;64.18
71643;BME280;59438;45.014;39.006;2023-01-28T03:43:56;100981.16;;;-0.72;64.41
71643;BME280;59438;45.014;39.006;2023-01-28T03:46:22;100978.53;;;-0.75;64.26
71643;BME280;59438;45.014;39.006;2023-01-28T03:48:50;100983.78;;;-0.69;64.45
71643;BME280;59438;45.014;39.006;2023-01-28T03:51:16;100983.78;;;-0.69;63.98
71643;BME280;59438;45.014;39.006;2023-01-28T03:53:42;100968.22;;;-0.75;63.81
71643;BME280;59438;45.014;39.006;2023-01-28T03:56:09;100975.25;;;-0.63;64.02
71643;BME280;59438;45.014;39.006;2023-01-28T03:58:35;100969.16;;;-0.68;63.65
71643;BME280;59438;45.014;39.006;2023-01-28T04:01:01;100974.31;;;-0.68;63.78
71643;BME280;59438;45.014;39.006;2023-01-28T04:03:28;100980.38;;;-0.65;63.80
71643;BME280;59438;45.014;39.006;2023-01-28T04:06:00;100957.94;;;-0.70;63.70
71643;BME280;59438;45.014;39.006;2023-01-28T04:08:29;100973.53;;;-0.63;63.75
71643;BME280;59438;45.014;39.006;2023-01-28T04:10:56;100975.28;;;-0.62;63.78
71643;BME280;59438;45.014;39.006;2023-01-28T04:13:23;100970.91;;;-0.64;63.91
71643;BME280;59438;45.014;39.006;2023-01-28T04:15:49;100977.88;;;-0.58;64.01
71643;BME280;59438;45.014;39.006;2023-01-28T04:18:15;100983.16;;;-0.51;63.74
71643;BME280;59438;45.014;39.006;2023-01-28T04:20:42;100983.00;;;-0.60;63.52
71643;BME280;59438;45.014;39.006;2023-01-28T04:23:10;100996.06;;;-0.48;63.27
71643;BME280;59438;45.014;39.006;2023-01-28T04:25:36;100991.78;;;-0.49;63.52
71643;BME280;59438;45.014;39.006;2023-01-28T04:28:02;101003.91;;;-0.43;63.60
71643;BME280;59438;45.014;39.006;2023-01-28T04:30:29;100998.75;;;-0.40;63.47
71643;BME280;59438;45.014;39.006;2023-01-28T04:32:55;100996.19;;;-0.40;63.50
71643;BME280;59438;45.014;39.006;2023-01-28T04:35:22;100986.69;;;-0.43;63.44
71643;BME280;59438;45.014;39.006;2023-01-28T04:37:48;100988.47;;;-0.38;63.64
71643;BME280;59438;45.014;39.006;2023-01-28T04:40:16;100999.69;;;-0.33;63.23
71643;BME280;59438;45.014;39.006;2023-01-28T04:42:52;101009.28;;;-0.26;63.20
71643;BME280;59438;45.014;39.006;2023-01-28T04:45:18;101002.44;;;-0.23;63.28
71643;BME280;59438;45.014;39.006;2023-01-28T04:47:44;101012.81;;;-0.18;63.09
71643;BME280;59438;45.014;39.006;2023-01-28T04:50:11;101004.19;;;-0.20;63.10
71643;BME280;59438;45.014;39.006;2023-01-28T04:52:37;101001.56;;;-0.22;63.06
71643;BME280;59438;45.014;39.006;2023-01-28T04:55:04;100999.00;;;-0.22;62.90
71643;BME280;59438;45.014;39.006;2023-01-28T04:57:32;100985.09;;;-0.33;62.99
71643;BME280;59438;45.014;39.006;2023-01-28T04:59:58;100994.69;;;-0.23;63.13
71643;BME280;59438;45.014;39.006;2023-01-28T05:02:24;101010.13;;;-0.26;63.35
71643;BME280;59438;45.014;39.006;2023-01-28T05:04:51;101006.66;;;-0.28;63.21
71643;BME280;59438;45.014;39.006;2023-01-28T05:07:17;101011.00;;;-0.27;63.32
71643;BME280;59438;45.014;39.006;2023-01-28T05:09:43;101021.34;;;-0.24;63.26
71643;BME280;59438;45.014;39.006;2023-01-28T05:12:10;100997.13;;;-0.33;63.30
71643;BME280;59438;45.014;39.006;2023-01-28T05:14:37;101025.69;;;-0.19;63.13
71643;BME280;59438;45.014;39.006;2023-01-28T05:17:04;101034.38;;;-0.14;63.25
71643;BME280;59438;45.014;39.006;2023-01-28T05:19:30;101023.19;;;-0.13;63.29
71643;BME280;59438;45.014;39.006;2023-01-28T05:21:56;101031.78;;;-0.13;63.22
71643;BME280;59438;45.014;39.006;2023-01-28T05:24:23;101034.38;;;-0.13;63.27
71643;BME280;59438;45.014;39.006;2023-01-28T05:26:49;101023.16;;;-0.16;63.06
71643;BME280;59438;45.014;39.006;2023-01-28T05:29:15;101026.56;;;-0.19;63.08
71643;BME280;59438;45.014;39.006;2023-01-28T05:31:43;101028.34;;;-0.16;63.00
71643;BME280;59438;45.014;39.006;2023-01-28T05:34:10;100998.00;;;-0.31;63.28
71643;BME280;59438;45.014;39.006;2023-01-28T05:36:36;100994.53;;;-0.35;62.97
71643;BME280;59438;45.014;39.006;2023-01-28T05:39:02;101001.47;;;-0.31;63.04
71643;BME280;59438;45.014;39.006;2023-01-28T05:41:29;101001.53;;;-0.26;63.04
71643;BME280;59438;45.014;39.006;2023-01-28T05:43:55;101005.84;;;-0.24;63.48
71643;BME280;59438;45.014;39.006;2023-01-28T05:46:21;101010.16;;;-0.24;63.19
71643;BME280;59438;45.014;39.006;2023-01-28T05:48:49;101014.47;;;-0.23;62.84
71643;BME280;59438;45.014;39.006;2023-01-28T05:51:15;101005.84;;;-0.24;62.86
71643;BME280;59438;45.014;39.006;2023-01-28T05:53:42;100993.75;;;-0.28;62.82
71643;BME280;59438;45.014;39.006;2023-01-28T05:56:08;100997.28;;;-0.21;62.91
71643;BME280;59438;45.014;39.006;2023-01-28T05:58:35;100961.81;;;-0.39;62.93
71643;BME280;59438;45.014;39.006;2023-01-28T06:01:01;101004.19;;;-0.17;62.85
71643;BME280;59438;45.014;39.006;2023-01-28T06:03:27;101003.41;;;-0.14;62.73
71643;BME280;59438;45.014;39.006;2023-01-28T06:05:55;100994.78;;;-0.13;62.51
71643;BME280;59438;45.014;39.006;2023-01-28T06:08:21;101013.75;;;-0.11;62.60
71643;BME280;59438;45.014;39.006;2023-01-28T06:10:48;101015.47;;;-0.12;62.66
71643;BME280;59438;45.014;39.006;2023-01-28T06:13:14;101012.91;;;-0.09;62.55
71643;BME280;59438;45.014;39.006;2023-01-28T06:15:40;101015.56;;;-0.03;62.36
71643;BME280;59438;45.014;39.006;2023-01-28T06:18:07;100999.22;;;-0.02;62.49
71643;BME280;59438;45.014;39.006;2023-01-28T06:20:33;100950.75;;;-0.26;62.40
71643;BME280;59438;45.014;39.006;2023-01-28T06:23:01;100996.69;;;0.03;62.22
71643;BME280;59438;45.014;39.006;2023-01-28T06:25:27;100997.50;;;-0.01;62.47
71643;BME280;59438;45.014;39.006;2023-01-28T06:27:53;100983.69;;;-0.06;62.46
71643;BME280;59438;45.014;39.006;2023-01-28T06:30:20;100975.03;;;-0.10;62.48
71643;BME280;59438;45.014;39.006;2023-01-28T06:32:46;100980.19;;;-0.10;62.55
71643;BME280;59438;45.014;39.006;2023-01-28T06:35:12;101000.84;;;-0.11;62.67
71643;BME280;59438;45.014;39.006;2023-01-28T06:37:39;100979.28;;;-0.16;62.52
71643;BME280;59438;45.014;39.006;2023-01-28T06:40:08;100974.88;;;-0.24;62.33
71643;BME280;59438;45.014;39.006;2023-01-28T06:42:34;100993.09;;;-0.11;62.75
71643;BME280;59438;45.014;39.006;2023-01-28T06:45:01;100990.47;;;-0.14;62.60
71643;BME280;59438;45.014;39.006;2023-01-28T06:47:27;100992.25;;;-0.10;62.51
71643;BME280;59438;45.014;39.006;2023-01-28T06:49:53;100982.81;;;-0.08;62.55
71643;BME280;59438;45.014;39.006;2023-01-28T06:52:20;100998.41;;;0.03;62.39
71643;BME280;59438;45.014;39.006;2023-01-28T06:54:46;101000.19;;;0.07;62.32
71643;BME280;59438;45.014;39.006;2023-01-28T06:57:14;100982.09;;;0.10;62.27
71643;BME280;59438;45.014;39.006;2023-01-28T06:59:40;100989.91;;;0.14;62.37
71643;BME280;59438;45.014;39.006;2023-01-28T07:02:08;100931.94;;;-0.14;62.11
71643;BME280;59438;45.014;39.006;2023-01-28T07:04:36;100980.50;;;0.23;61.97
71643;BME280;59438;45.014;39.006;2023-01-28T07:07:05;100979.69;;;0.25;62.15
71643;BME280;59438;45.014;39.006;2023-01-28T07:09:32;100966.75;;;0.24;61.93
71643;BME280;59438;45.014;39.006;2023-01-28T07:11:58;100982.31;;;0.33;62.16
71643;BME280;59438;45.014;39.006;2023-01-28T07:14:26;100980.63;;;0.32;61.93
71643;BME280;59438;45.014;39.006;2023-01-28T07:16:52;100982.41;;;0.37;61.98
71643;BME280;59438;45.014;39.006;2023-01-28T07:19:18;100989.38;;;0.49;61.75
71643;BME280;59438;45.014;39.006;2023-01-28T07:21:45;100983.38;;;0.52;62.20
71643;BME280;59438;45.014;39.006;2023-01-28T07:24:11;100974.75;;;0.50;61.91
71643;BME280;59438;45.014;39.006;2023-01-28T07:26:37;100965.19;;;0.41;62.12
71643;BME280;59438;45.014;39.006;2023-01-28T07:29:04;100980.84;;;0.58;61.89
71643;BME280;59438;45.014;39.006;2023-01-28T07:31:32;100872.66;;;-0.06;61.97
71643;BME280;59438;45.014;39.006;2023-01-28T07:33:58;100980.94;;;0.69;61.71
71643;BME280;59438;45.014;39.006;2023-01-28T07:36:24;100986.16;;;0.75;61.64
71643;BME280;59438;45.014;39.006;2023-01-28T07:38:51;100977.56;;;0.79;61.68
71643;BME280;59438;45.014;39.006;2023-01-28T07:41:17;100979.31;;;0.83;61.32
71643;BME280;59438;45.014;39.006;2023-01-28T07:43:43;100987.06;;;0.83;61.56
71643;BME280;59438;45.014;39.006;2023-01-28T07:46:10;100991.41;;;0.86;61.74
71643;BME280;59438;45.014;39.006;2023-01-28T07:48:37;100951.63;;;0.71;61.30
71643;BME280;59438;45.014;39.006;2023-01-28T07:51:04;100996.66;;;0.98;61.52
71643;BME280;59438;45.014;39.006;2023-01-28T07:53:30;100998.44;;;1.04;61.26
71643;BME280;59438;45.014;39.006;2023-01-28T07:56:00;101002.81;;;1.14;61.31
71643;BME280;59438;45.014;39.006;2023-01-28T07:58:26;100997.69;;;1.25;61.09
71643;BME280;59438;45.014;39.006;2023-01-28T08:00:55;100991.69;;;1.33;60.72
71643;BME280;59438;45.014;39.006;2023-01-28T08:03:22;100956.28;;;1.20;61.01
71643;BME280;59438;45.014;39.006;2023-01-28T08:05:51;100997.81;;;1.48;60.79
71643;BME280;59438;45.014;39.006;2023-01-28T08:08:18;101002.19;;;1.59;60.69
71643;BME280;59438;45.014;39.006;2023-01-28T08:10:45;101004.84;;;1.73;60.69
71643;BME280;59438;45.014;39.006;2023-01-28T08:13:12;100979.81;;;1.77;60.38
71643;BME280;59438;45.014;39.006;2023-01-28T08:15:39;100994.53;;;1.95;60.53
71643;BME280;59438;45.014;39.006;2023-01-28T08:18:07;100985.94;;;2.02;59.80
71643;BME280;59438;45.014;39.006;2023-01-28T08:20:34;100975.59;;;2.08;59.79
71643;BME280;59438;45.014;39.006;2023-01-28T08:23:06;100960.06;;;2.24;58.86
71643;BME280;59438;45.014;39.006;2023-01-28T08:25:33;100960.91;;;2.30;59.73
71643;BME280;59438;45.014;39.006;2023-01-28T08:27:59;100953.16;;;2.33;59.45
71643;BME280;59438;45.014;39.006;2023-01-28T08:30:26;100937.59;;;2.22;59.86
71643;BME280;59438;45.014;39.006;2023-01-28T08:32:55;100957.47;;;2.40;59.33
71643;BME280;59438;45.014;39.006;2023-01-28T08:35:21;100952.31;;;2.45;59.66
71643;BME280;59438;45.014;39.006;2023-01-28T08:37:47;100966.13;;;2.50;59.47
71643;BME280;59438;45.014;39.006;2023-01-28T08:40:15;100935.00;;;2.44;58.84
71643;BME280;59438;45.014;39.006;2023-01-28T08:42:46;100945.38;;;2.49;58.29
71643;BME280;59438;45.014;39.006;2023-01-28T08:45:12;100948.00;;;2.47;59.07
71643;BME280;59438;45.014;39.006;2023-01-28T08:47:46;100918.59;;;2.36;58.23
71643;BME280;59438;45.014;39.006;2023-01-28T08:50:13;100956.63;;;2.61;58.93
71643;BME280;59438;45.014;39.006;2023-01-28T08:52:39;100916.00;;;2.42;58.91
71643;BME280;59438;45.014;39.006;2023-01-28T08:55:06;100952.28;;;2.65;59.01
71643;BME280;59438;45.014;39.006;2023-01-28T08:57:38;100932.41;;;2.66;58.98
71643;BME280;59438;45.014;39.006;2023-01-28T09:00:06;100944.50;;;2.65;58.56
71643;BME280;59438;45.014;39.006;2023-01-28T09:02:32;100935.84;;;2.75;58.95
71643;BME280;59438;45.014;39.006;2023-01-28T09:04:59;100944.50;;;2.77;59.28
71643;BME280;59438;45.014;39.006;2023-01-28T09:07:25;100912.50;;;2.69;58.95
71643;BME280;59438;45.014;39.006;2023-01-28T09:09:51;100945.34;;;2.92;58.87
71643;BME280;59438;45.014;39.006;2023-01-28T09:12:18;100950.53;;;2.98;58.85
71643;BME280;59438;45.014;39.006;2023-01-28T09:14:45;100953.09;;;3.02;58.05
71643;BME280;59438;45.014;39.006;2023-01-28T09:17:12;100932.31;;;3.09;58.39
71643;BME280;59438;45.014;39.006;2023-01-28T09:19:38;100889.09;;;2.92;58.24
71643;BME280;59438;45.014;39.006;2023-01-28T09:22:05;100929.69;;;3.21;58.45
71643;BME280;59438;45.014;39.006;2023-01-28T09:24:31;100939.19;;;3.27;58.52
71643;BME280;59438;45.014;39.006;2023-01-28T09:26:57;100933.97;;;3.31;58.58
71643;BME280;59438;45.014;39.006;2023-01-28T09:29:24;100933.09;;;3.37;58.86
71643;BME280;59438;45.014;39.006;2023-01-28T09:31:52;100942.63;;;3.38;58.55
71643;BME280;59438;45.014;39.006;2023-01-28T09:34:18;100945.22;;;3.44;58.87
71643;BME280;59438;45.014;39.006;2023-01-28T09:36:44;100888.19;;;3.10;58.72
71643;BME280;59438;45.014;39.006;2023-01-28T09:39:11;100927.03;;;3.42;58.56
71643;BME280;59438;45.014;39.006;2023-01-28T09:41:46;100904.56;;;3.32;57.96
71643;BME280;59438;45.014;39.006;2023-01-28T09:44:36;100929.59;;;3.46;58.02
71643;BME280;59438;45.014;39.006;2023-01-28T09:47:15;100906.31;;;3.32;57.82
71643;BME280;59438;45.014;39.006;2023-01-28T09:49:47;100923.59;;;3.33;58.50
71643;BME280;59438;45.014;39.006;2023-01-28T09:52:16;100930.56;;;3.28;58.62
71643;BME280;59438;45.014;39.006;2023-01-28T09:54:45;100893.41;;;3.07;58.63
71643;BME280;59438;45.014;39.006;2023-01-28T09:57:16;100891.66;;;3.11;58.72
71643;BME280;59438;45.014;39.006;2023-01-28T09:59:44;100920.16;;;3.26;58.71
71643;BME280;59438;45.014;39.006;2023-01-28T10:02:29;100929.69;;;3.32;58.06
71643;BME280;59438;45.014;39.006;2023-01-28T10:05:02;100943.53;;;3.34;58.47
71643;BME280;59438;45.014;39.006;2023-01-28T10:07:37;100948.72;;;3.31;57.67
71643;BME280;59438;45.014;39.006;2023-01-28T10:10:12;100956.44;;;3.41;58.09
71643;BME280;59438;45.014;39.006;2023-01-28T10:12:58;100956.44;;;3.49;57.64
71643;BME280;59438;45.014;39.006;2023-01-28T10:15:53;100920.97;;;3.40;57.49
71643;BME280;59438;45.014;39.006;2023-01-28T10:18:34;100922.69;;;3.43;57.72
71643;BME280;59438;45.014;39.006;2023-01-28T10:21:07;100946.00;;;3.60;57.95
71643;BME280;59438;45.014;39.006;2023-01-28T10:23:44;100905.41;;;3.37;57.97
71643;BME280;59438;45.014;39.006;2023-01-28T10:26:20;100937.28;;;3.73;57.43
71643;BME280;59438;45.014;39.006;2023-01-28T10:28:51;100905.34;;;3.51;57.78
71643;BME280;59438;45.014;39.006;2023-01-28T10:31:18;100941.53;;;3.88;58.20
71643;BME280;59438;45.014;39.006;2023-01-28T10:33:46;100940.63;;;3.91;57.51
71643;BME280;59438;45.014;39.006;2023-01-28T10:36:14;100937.19;;;3.93;57.74
71643;BME280;59438;45.014;39.006;2023-01-28T10:38:41;100937.16;;;3.96;58.03
71643;BME280;59438;45.014;39.006;2023-01-28T10:41:10;100912.97;;;3.83;57.28
71643;BME280;59438;45.014;39.006;2023-01-28T10:43:39;100936.22;;;4.07;57.43
71643;BME280;59438;45.014;39.006;2023-01-28T10:46:11;100932.78;;;4.01;56.96
71643;BME280;59438;45.014;39.006;2023-01-28T10:48:44;100934.47;;;4.07;57.02
71643;BME280;59438;45.014;39.006;2023-01-28T10:51:12;100927.53;;;4.09;57.32
71643;BME280;59438;45.014;39.006;2023-01-28T10:53:41;100932.69;;;4.14;57.47
71643;BME280;59438;45.014;39.006;2023-01-28T10:56:09;100936.19;;;4.14;56.99
71643;BME280;59438;45.014;39.006;2023-01-28T10:58:47;100917.22;;;4.00;57.19
71643;BME280;59438;45.014;39.006;2023-01-28T11:01:15;100949.13;;;4.16;57.75
71643;BME280;59438;45.014;39.006;2023-01-28T11:03:53;100924.97;;;4.01;56.99
71643;BME280;59438;45.014;39.006;2023-01-28T11:06:26;100943.03;;;4.24;56.63
71643;BME280;59438;45.014;39.006;2023-01-28T11:08:53;100942.13;;;4.29;57.81
71643;BME280;59438;45.014;39.006;2023-01-28T11:11:23;100918.88;;;4.10;57.49
71643;BME280;59438;45.014;39.006;2023-01-28T11:13:51;100925.78;;;4.10;57.49
71643;BME280;59438;45.014;39.006;2023-01-28T11:16:18;100909.31;;;4.09;58.35
71643;BME280;59438;45.014;39.006;2023-01-28T11:18:49;100889.47;;;3.97;57.40
71643;BME280;59438;45.014;39.006;2023-01-28T11:21:19;100947.38;;;4.22;57.71
71643;BME280;59438;45.014;39.006;2023-01-28T11:23:50;100915.47;;;3.99;58.79
71643;BME280;59438;45.014;39.006;2023-01-28T11:26:20;100943.09;;;4.18;58.27
71643;BME280;59438;45.014;39.006;2023-01-28T11:28:48;100937.94;;;4.11;58.28
71643;BME280;59438;45.014;39.006;2023-01-28T11:31:16;100932.69;;;4.17;58.39
71643;BME280;59438;45.014;39.006;2023-01-28T11:33:45;100903.38;;;3.95;58.73
71643;BME280;59438;45.014;39.006;2023-01-28T11:36:14;100933.53;;;4.19;59.00
71643;BME280;59438;45.014;39.006;2023-01-28T11:38:53;100850.72;;;3.65;58.74
71643;BME280;59438;45.014;39.006;2023-01-28T11:41:26;100822.41;;;3.22;59.50
71643;BME280;59438;45.014;39.006;2023-01-28T11:43:52;100940.69;;;3.84;59.47
71643;BME280;59438;45.014;39.006;2023-01-28T11:46:42;100935.56;;;3.69;60.76
71643;BME280;59438;45.014;39.006;2023-01-28T11:49:20;100920.00;;;3.65;60.57
71643;BME280;59438;45.014;39.006;2023-01-28T11:51:53;100940.72;;;3.81;60.97
71643;BME280;59438;45.014;39.006;2023-01-28T11:54:34;100939.81;;;3.86;60.67
71643;BME280;59438;45.014;39.006;2023-01-28T11:57:16;100935.47;;;3.88;60.28
71643;BME280;59438;45.014;39.006;2023-01-28T11:59:56;100920.78;;;3.80;60.88
71643;BME280;59438;45.014;39.006;2023-01-28T12:02:38;100907.81;;;3.76;61.38
71643;BME280;59438;45.014;39.006;2023-01-28T12:05:18;100905.22;;;3.76;61.74
71643;BME280;59438;45.014;39.006;2023-01-28T12:07:53;100887.06;;;3.68;60.78
71643;BME280;59438;45.014;39.006;2023-01-28T12:10:28;100919.91;;;3.83;60.98
71643;BME280;59438;45.014;39.006;2023-01-28T12:13:12;100896.66;;;3.58;61.72
71643;BME280;59438;45.014;39.006;2023-01-28T12:16:02;100922.50;;;3.81;61.81
71643;BME280;59438;45.014;39.006;2023-01-28T12:18:42;100876.81;;;3.43;62.05
71643;BME280;59438;45.014;39.006;2023-01-28T12:21:21;100904.41;;;3.66;61.62
71643;BME280;59438;45.014;39.006;2023-01-28T12:24:01;100927.69;;;3.89;61.23
71643;BME280;59438;45.014;39.006;2023-01-28T12:26:42;100932.03;;;3.87;61.55
71643;BME280;59438;45.014;39.006;2023-01-28T12:29:24;100895.69;;;3.76;61.04
71643;BME280;59438;45.014;39.006;2023-01-28T12:32:02;100868.91;;;3.67;61.21
71643;BME280;59438;45.014;39.006;2023-01-28T12:34:50;100883.53;;;3.78;60.85
71643;BME280;59438;45.014;39.006;2023-01-28T12:37:27;100889.50;;;3.94;60.58
71643;BME280;59438;45.014;39.006;2023-01-28T12:40:13;100908.47;;;4.09;61.28
71643;BME280;59438;45.014;39.006;2023-01-28T12:42:47;100892.97;;;3.95;61.08
71643;BME280;59438;45.014;39.006;2023-01-28T12:45:18;100964.75;;;4.16;61.43
71643;BME280;59438;45.014;39.006;2023-01-28T12:47:49;100931.06;;;3.99;61.42
71643;BME280;59438;45.014;39.006;2023-01-28T12:50:21;100930.22;;;3.95;61.73
71643;BME280;59438;45.014;39.006;2023-01-28T12:52:53;100987.25;;;4.24;62.25
71643;BME280;59438;45.014;39.006;2023-01-28T12:55:32;100946.63;;;4.05;61.88
71643;BME280;59438;45.014;39.006;2023-01-28T12:58:04;100989.81;;;4.31;62.74
71643;BME280;59438;45.014;39.006;2023-01-28T13:00:32;100987.13;;;4.38;61.96